Time;durP1;ratioP1;P1;durP2;ratioP2;P2;SDS_P1;SDS_P2;PMS_P1;PMS_P2;Temp;Humidity;BMP_temperature;BMP_pressure;BME280_temperature;BME280_humidity;BME280_pressure;Samples;Min_cycle;Max_cycle;Signal;HPM_P1;HPM_P2
2023/03/28 00:02:16;;;;;;;;;;;19.10;53.80;;;;;;6201347;28;19935;-73
2023/03/28 00:05:16;;;;;;;;;;;19.10;53.80;;;;;;6189195;28;19910;-72
2023/03/28 00:08:17;;;;;;;;;;;19.10;54.00;;;;;;6220122;28;19913;-73
2023/03/28 00:11:18;;;;;;;;;;;19.10;53.90;;;;;;6193052;28;19967;-73
2023/03/28 00:14:19;;;;;;;;;;;19.10;54.00;;;;;;6177329;28;19985;-72
2023/03/28 00:17:19;;;;;;;;;;;19.10;53.90;;;;;;6211744;28;19909;-72
2023/03/28 00:20:20;;;;;;;;;;;19.10;53.90;;;;;;6220149;28;19918;-73
2023/03/28 00:23:20;;;;;;;;;;;19.10;53.90;;;;;;6191821;28;20364;-73
2023/03/28 00:26:23;;;;;;;;;;;19.10;53.90;;;;;;6214313;28;20000;-73
2023/03/28 00:29:24;;;;;;;;;;;19.10;53.80;;;;;;6201887;28;20326;-72
2023/03/28 00:32:25;;;;;;;;;;;19.10;53.70;;;;;;6203902;28;20368;-72
2023/03/28 00:35:25;;;;;;;;;;;19.10;53.90;;;;;;6203301;28;20204;-72
2023/03/28 00:38:26;;;;;;;;;;;19.10;53.80;;;;;;6196464;28;20001;-73
2023/03/28 00:41:31;;;;;;;;;;;19.10;53.90;;;;;;6197827;28;19917;-72
2023/03/28 00:44:49;;;;;;;;;;;19.10;53.70;;;;;;6218620;28;20086;-72
2023/03/28 00:47:57;;;;;;;;;;;19.10;53.80;;;;;;6202587;28;19909;-74
2023/03/28 00:51:02;;;;;;;;;;;19.10;53.80;;;;;;6178347;28;19913;-72
2023/03/28 00:54:04;;;;;;;;;;;19.10;53.70;;;;;;6218348;28;19924;-72
2023/03/28 00:57:05;;;;;;;;;;;19.10;53.80;;;;;;6209769;28;20392;-73
2023/03/28 01:00:11;;;;;;;;;;;19.10;53.80;;;;;;6194935;28;20004;-73
2023/03/28 01:03:12;;;;;;;;;;;19.10;53.80;;;;;;6211828;28;19941;-72
2023/03/28 01:06:14;;;;;;;;;;;19.10;53.80;;;;;;6218203;28;20341;-72
2023/03/28 01:09:15;;;;;;;;;;;19.10;53.80;;;;;;6177327;28;20321;-72
2023/03/28 01:12:16;;;;;;;;;;;19.10;53.50;;;;;;6200234;28;19913;-72
2023/03/28 01:15:17;;;;;;;;;;;19.10;53.60;;;;;;6219062;28;19914;-72
2023/03/28 01:18:21;;;;;;;;;;;19.10;53.80;;;;;;6202827;28;20474;-72
2023/03/28 01:21:31;;;;;;;;;;;19.10;53.70;;;;;;6195319;28;19921;-74
2023/03/28 01:24:50;;;;;;;;;;;19.10;53.80;;;;;;6218414;28;20399;-72
2023/03/28 01:28:04;;;;;;;;;;;19.10;53.70;;;;;;6207943;28;19913;-72
2023/03/28 01:31:23;;;;;;;;;;;19.10;53.60;;;;;;6195015;28;20004;-72
2023/03/28 01:34:42;;;;;;;;;;;19.10;53.60;;;;;;6220972;28;20020;-72
2023/03/28 01:37:46;;;;;;;;;;;19.10;53.60;;;;;;6234446;28;19910;-73
2023/03/28 01:40:53;;;;;;;;;;;19.10;53.50;;;;;;6201640;28;19925;-73
2023/03/28 01:44:11;;;;;;;;;;;19.10;53.50;;;;;;6186176;28;19932;-73
2023/03/28 01:47:26;;;;;;;;;;;19.10;53.60;;;;;;6197426;28;20386;-72
2023/03/28 01:50:39;;;;;;;;;;;19.10;53.50;;;;;;6222518;28;19909;-72
2023/03/28 01:53:42;;;;;;;;;;;19.10;53.70;;;;;;6206944;28;19910;-72
2023/03/28 01:57:09;;;;;;;;;;;19.10;53.60;;;;;;6198552;28;19910;-72
2023/03/28 02:00:18;;;;;;;;;;;19.10;53.60;;;;;;6178615;28;19917;-72
2023/03/28 02:03:30;;;;;;;;;;;19.10;53.40;;;;;;6229533;28;20395;-72
2023/03/28 02:06:33;;;;;;;;;;;19.10;53.50;;;;;;6246232;28;19913;-73
2023/03/28 02:09:35;;;;;;;;;;;19.10;53.40;;;;;;6224109;28;19913;-73
2023/03/28 02:12:39;;;;;;;;;;;19.10;53.60;;;;;;6219578;28;19909;-73
2023/03/28 02:15:41;;;;;;;;;;;19.10;53.60;;;;;;6197982;28;19910;-73
2023/03/28 02:18:45;;;;;;;;;;;19.10;53.50;;;;;;6209274;28;19932;-73
2023/03/28 02:21:49;;;;;;;;;;;19.10;53.50;;;;;;6222743;28;20260;-72
2023/03/28 02:24:50;;;;;;;;;;;19.10;53.50;;;;;;6219763;28;19978;-72
2023/03/28 02:27:54;;;;;;;;;;;19.00;53.50;;;;;;6219210;28;19967;-72
2023/03/28 02:30:55;;;;;;;;;;;19.10;53.60;;;;;;6197435;28;20284;-73
2023/03/28 02:33:57;;;;;;;;;;;19.10;53.30;;;;;;6218568;28;19916;-72
2023/03/28 02:37:14;;;;;;;;;;;19.10;53.40;;;;;;6220043;28;19952;-73
2023/03/28 02:40:30;;;;;;;;;;;19.00;53.40;;;;;;6242024;28;19919;-72
2023/03/28 02:43:41;;;;;;;;;;;19.00;53.30;;;;;;6239590;28;20358;-72
2023/03/28 02:46:51;;;;;;;;;;;19.10;53.50;;;;;;6215909;28;19913;-72
2023/03/28 02:49:57;;;;;;;;;;;19.00;53.40;;;;;;6204479;28;20428;-73
2023/03/28 02:53:04;;;;;;;;;;;19.00;53.20;;;;;;6180143;28;19906;-72
2023/03/28 02:56:15;;;;;;;;;;;19.10;53.40;;;;;;6219457;28;19917;-72
2023/03/28 02:59:24;;;;;;;;;;;19.00;53.50;;;;;;6210710;28;19932;-72
2023/03/28 03:02:27;;;;;;;;;;;19.00;53.30;;;;;;6197240;28;20017;-72
2023/03/28 03:05:28;;;;;;;;;;;19.00;53.20;;;;;;6214423;28;19909;-73
2023/03/28 03:08:29;;;;;;;;;;;19.00;53.10;;;;;;6200465;28;20007;-73
2023/03/28 03:11:30;;;;;;;;;;;19.00;53.10;;;;;;6179200;28;20188;-73
2023/03/28 03:14:33;;;;;;;;;;;19.00;53.00;;;;;;6199594;28;19906;-73
2023/03/28 03:17:34;;;;;;;;;;;19.00;53.10;;;;;;6220906;28;19951;-72
2023/03/28 03:20:34;;;;;;;;;;;19.00;53.10;;;;;;6202302;28;19913;-72
2023/03/28 03:23:35;;;;;;;;;;;19.00;53.00;;;;;;6191535;28;19952;-73
2023/03/28 03:26:36;;;;;;;;;;;19.10;53.00;;;;;;6202362;28;19905;-72
2023/03/28 03:29:36;;;;;;;;;;;19.00;52.90;;;;;;6193474;28;19983;-72
2023/03/28 03:32:38;;;;;;;;;;;19.00;53.00;;;;;;6195994;28;19905;-72
2023/03/28 03:35:40;;;;;;;;;;;19.00;52.80;;;;;;6226455;28;19952;-73
2023/03/28 03:38:41;;;;;;;;;;;19.00;52.90;;;;;;6245272;28;19996;-73
2023/03/28 03:41:41;;;;;;;;;;;19.00;52.90;;;;;;6220349;28;19913;-72
2023/03/28 03:44:42;;;;;;;;;;;19.00;52.90;;;;;;6211800;28;19906;-73
2023/03/28 03:47:42;;;;;;;;;;;19.00;52.90;;;;;;6195620;28;19949;-72
2023/03/28 03:50:43;;;;;;;;;;;19.00;53.00;;;;;;6210988;28;19906;-72
2023/03/28 03:53:45;;;;;;;;;;;19.00;52.90;;;;;;6202348;28;20270;-72
2023/03/28 03:56:47;;;;;;;;;;;19.00;52.60;;;;;;6193694;28;19921;-73
2023/03/28 03:59:47;;;;;;;;;;;19.00;52.80;;;;;;6202093;28;19909;-72
2023/03/28 04:02:48;;;;;;;;;;;19.00;52.70;;;;;;6212492;28;19920;-73
2023/03/28 04:05:48;;;;;;;;;;;19.00;52.80;;;;;;6204660;28;19905;-72
2023/03/28 04:08:50;;;;;;;;;;;19.10;52.70;;;;;;6195771;28;19912;-72
2023/03/28 04:11:51;;;;;;;;;;;19.00;52.90;;;;;;6216728;28;19929;-73
2023/03/28 04:14:51;;;;;;;;;;;19.10;52.90;;;;;;6213781;28;19906;-71
2023/03/28 04:17:55;;;;;;;;;;;19.00;52.90;;;;;;6195565;28;19906;-73
2023/03/28 04:20:57;;;;;;;;;;;19.00;52.50;;;;;;6207682;28;19917;-72
2023/03/28 04:24:00;;;;;;;;;;;19.00;52.70;;;;;;6219072;28;19953;-72
2023/03/28 04:27:02;;;;;;;;;;;19.10;52.80;;;;;;6194669;28;19920;-73
2023/03/28 04:30:02;;;;;;;;;;;19.10;52.70;;;;;;6182034;28;19952;-72
2023/03/28 04:33:03;;;;;;;;;;;19.00;52.90;;;;;;6219354;28;19913;-72
2023/03/28 04:36:04;;;;;;;;;;;19.00;52.70;;;;;;6225330;28;19910;-73
2023/03/28 04:39:05;;;;;;;;;;;19.00;52.50;;;;;;6219366;28;19906;-73
2023/03/28 04:42:07;;;;;;;;;;;19.00;52.70;;;;;;6196005;28;19957;-72
2023/03/28 04:45:08;;;;;;;;;;;19.00;52.40;;;;;;6196319;28;19920;-71
2023/03/28 04:48:08;;;;;;;;;;;19.00;53.10;;;;;;6201371;28;19914;-72
2023/03/28 04:51:09;;;;;;;;;;;19.00;52.40;;;;;;6194158;28;19905;-72
2023/03/28 04:54:09;;;;;;;;;;;19.00;52.70;;;;;;6200124;28;19987;-73
2023/03/28 04:57:10;;;;;;;;;;;19.00;52.50;;;;;;6193293;28;19909;-73
2023/03/28 05:00:32;;;;;;;;;;;19.10;52.80;;;;;;6204893;28;19967;-72
2023/03/28 05:03:33;;;;;;;;;;;19.00;52.50;;;;;;6212561;28;20384;-72
2023/03/28 05:06:33;;;;;;;;;;;19.10;52.80;;;;;;6208247;28;19920;-72
2023/03/28 05:09:35;;;;;;;;;;;19.10;52.30;;;;;;6210464;28;19906;-73
2023/03/28 05:12:35;;;;;;;;;;;19.00;52.80;;;;;;6218793;28;20007;-73
2023/03/28 05:15:36;;;;;;;;;;;19.00;52.50;;;;;;6209760;28;20394;-72
2023/03/28 05:18:37;;;;;;;;;;;19.10;52.50;;;;;;6204522;28;20271;-73
2023/03/28 05:21:37;;;;;;;;;;;19.10;52.70;;;;;;6202422;28;20115;-73
2023/03/28 05:24:38;;;;;;;;;;;19.10;52.80;;;;;;6212869;28;20211;-72
2023/03/28 05:27:38;;;;;;;;;;;19.10;52.80;;;;;;6219403;28;20416;-72
2023/03/28 05:30:39;;;;;;;;;;;19.10;52.90;;;;;;6209748;28;19921;-72
2023/03/28 05:33:39;;;;;;;;;;;19.10;53.00;;;;;;6223137;28;20330;-73
2023/03/28 05:36:40;;;;;;;;;;;19.10;52.90;;;;;;6214064;28;20332;-72
2023/03/28 05:39:41;;;;;;;;;;;19.10;53.10;;;;;;6205659;28;19996;-72
2023/03/28 05:42:42;;;;;;;;;;;19.10;53.10;;;;;;6238362;28;19913;-72
2023/03/28 05:45:43;;;;;;;;;;;19.10;53.00;;;;;;6205120;28;20626;-72
2023/03/28 05:48:43;;;;;;;;;;;19.10;53.10;;;;;;6222266;28;19973;-72
2023/03/28 05:51:44;;;;;;;;;;;19.10;53.10;;;;;;6216667;28;19909;-72
2023/03/28 05:54:44;;;;;;;;;;;19.10;53.20;;;;;;6222035;28;20067;-72
2023/03/28 05:57:45;;;;;;;;;;;19.10;53.20;;;;;;6233705;28;19927;-72
2023/03/28 06:00:45;;;;;;;;;;;19.10;53.10;;;;;;6218444;28;19917;-72
2023/03/28 06:03:46;;;;;;;;;;;19.10;53.30;;;;;;6240459;28;19905;-72
2023/03/28 06:06:47;;;;;;;;;;;19.10;53.20;;;;;;6215460;28;20368;-72
2023/03/28 06:09:48;;;;;;;;;;;19.10;53.30;;;;;;6219261;28;20340;-72
2023/03/28 06:12:49;;;;;;;;;;;19.10;53.30;;;;;;6222718;28;19905;-73
2023/03/28 06:15:49;;;;;;;;;;;19.10;53.30;;;;;;6220492;28;19913;-72
2023/03/28 06:18:51;;;;;;;;;;;19.10;53.30;;;;;;6241954;28;20039;-73
2023/03/28 06:21:51;;;;;;;;;;;19.10;53.30;;;;;;6203457;28;20414;-73
2023/03/28 06:24:52;;;;;;;;;;;19.10;53.30;;;;;;6195033;28;19910;-73
2023/03/28 06:27:52;;;;;;;;;;;19.10;53.40;;;;;;6224783;28;19917;-72
2023/03/28 06:30:53;;;;;;;;;;;19.10;53.30;;;;;;6224965;28;19987;-72
2023/03/28 06:33:54;;;;;;;;;;;19.10;53.40;;;;;;6242947;28;19909;-72
2023/03/28 06:36:54;;;;;;;;;;;19.10;53.40;;;;;;6223395;28;20437;-73
2023/03/28 06:39:55;;;;;;;;;;;19.10;53.40;;;;;;6217741;28;20379;-72
2023/03/28 06:42:55;;;;;;;;;;;19.10;53.40;;;;;;6233150;28;19909;-72
2023/03/28 06:45:56;;;;;;;;;;;19.10;53.40;;;;;;6235323;28;19906;-72
2023/03/28 06:48:56;;;;;;;;;;;19.10;53.40;;;;;;6241782;28;19955;-72
2023/03/28 06:51:57;;;;;;;;;;;19.10;53.40;;;;;;6227234;28;20382;-72
2023/03/28 06:54:57;;;;;;;;;;;19.10;53.40;;;;;;6223916;28;19972;-73
2023/03/28 06:57:58;;;;;;;;;;;19.10;53.40;;;;;;6227366;28;19962;-72
2023/03/28 07:00:59;;;;;;;;;;;19.10;53.40;;;;;;6223574;28;19914;-72
2023/03/28 07:04:00;;;;;;;;;;;19.10;53.50;;;;;;6242599;28;19905;-72
2023/03/28 07:07:01;;;;;;;;;;;19.10;53.50;;;;;;6228361;28;20319;-72
2023/03/28 07:10:02;;;;;;;;;;;19.10;54.10;;;;;;6244548;28;19912;-73
2023/03/28 07:13:02;;;;;;;;;;;19.10;53.50;;;;;;6226638;28;19912;-72
2023/03/28 07:16:04;;;;;;;;;;;19.10;54.10;;;;;;6237557;28;19983;-73
2023/03/28 07:19:06;;;;;;;;;;;19.10;54.10;;;;;;6238913;28;19905;-72
2023/03/28 07:22:06;;;;;;;;;;;19.10;53.50;;;;;;6229383;28;19913;-72
2023/03/28 07:25:07;;;;;;;;;;;19.10;53.50;;;;;;6243303;28;19959;-72
2023/03/28 07:28:07;;;;;;;;;;;19.10;53.50;;;;;;6228272;28;19916;-72
2023/03/28 07:31:08;;;;;;;;;;;19.10;53.50;;;;;;6238235;28;20366;-72
2023/03/28 07:34:09;;;;;;;;;;;19.10;53.60;;;;;;6229105;28;19913;-73
2023/03/28 07:37:09;;;;;;;;;;;19.10;53.50;;;;;;6244231;28;19955;-73
2023/03/28 07:40:11;;;;;;;;;;;19.10;53.40;;;;;;6213260;28;19922;-72
2023/03/28 07:43:12;;;;;;;;;;;19.10;53.50;;;;;;6221596;28;19955;-72
2023/03/28 07:46:13;;;;;;;;;;;19.10;53.50;;;;;;6201900;28;19964;-72
2023/03/28 07:49:15;;;;;;;;;;;19.10;53.50;;;;;;6207764;28;20597;-73
2023/03/28 07:52:16;;;;;;;;;;;19.10;53.60;;;;;;6213635;28;19906;-72
2023/03/28 07:55:17;;;;;;;;;;;19.10;53.60;;;;;;6203909;28;19944;-74
2023/03/28 07:58:17;;;;;;;;;;;19.10;53.60;;;;;;6236761;28;19906;-74
2023/03/28 08:01:18;;;;;;;;;;;19.10;53.50;;;;;;6221925;28;19914;-72
2023/03/28 08:04:19;;;;;;;;;;;19.10;53.60;;;;;;6201531;28;19951;-73
2023/03/28 08:07:19;;;;;;;;;;;19.10;52.90;;;;;;6204840;28;19913;-73
2023/03/28 08:10:20;;;;;;;;;;;19.10;51.50;;;;;;6222856;28;19992;-72
2023/03/28 08:13:21;;;;;;;;;;;19.10;52.00;;;;;;6204732;28;19909;-72
2023/03/28 08:16:22;;;;;;;;;;;19.10;52.20;;;;;;6220784;28;20346;-72
2023/03/28 08:19:22;;;;;;;;;;;19.10;52.60;;;;;;6214178;28;19952;-72
2023/03/28 08:22:24;;;;;;;;;;;19.10;52.70;;;;;;6208151;28;19913;-73
2023/03/28 08:25:25;;;;;;;;;;;19.10;52.80;;;;;;6215246;28;19956;-73
2023/03/28 08:28:26;;;;;;;;;;;19.10;52.90;;;;;;6221737;28;19915;-72
2023/03/28 08:31:27;;;;;;;;;;;19.10;53.00;;;;;;6245226;28;19995;-72
2023/03/28 08:34:27;;;;;;;;;;;19.10;53.10;;;;;;6205293;28;19910;-72
2023/03/28 08:37:28;;;;;;;;;;;19.10;53.00;;;;;;6222161;28;19956;-72
2023/03/28 08:40:28;;;;;;;;;;;19.10;53.10;;;;;;6230501;28;19959;-72
2023/03/28 08:43:41;;;;;;;;;;;19.10;53.10;;;;;;6216039;28;19964;-72
2023/03/28 08:46:43;;;;;;;;;;;19.10;53.10;;;;;;6245222;28;19913;-71
2023/03/28 08:49:45;;;;;;;;;;;19.10;53.10;;;;;;6227495;28;20286;-70
2023/03/28 08:52:46;;;;;;;;;;;19.10;53.20;;;;;;6174208;28;20016;-72
2023/03/28 08:55:47;;;;;;;;;;;19.10;53.20;;;;;;6217735;28;19921;-72
2023/03/28 08:59:02;;;;;;;;;;;19.10;53.10;;;;;;6226781;28;19988;-73
2023/03/28 09:02:14;;;;;;;;;;;19.10;53.20;;;;;;6226519;28;19921;-72
2023/03/28 09:05:15;;;;;;;;;;;19.10;53.30;;;;;;6203125;28;19905;-72
2023/03/28 09:08:35;;;;;;;;;;;19.10;53.20;;;;;;6226432;28;19996;-72
2023/03/28 09:11:54;;;;;;;;;;;19.10;53.20;;;;;;6246514;28;20372;-72
2023/03/28 09:15:17;;;;;;;;;;;19.10;53.30;;;;;;6210497;28;20445;-72
2023/03/28 09:18:30;;;;;;;;;;;19.10;53.30;;;;;;6193179;28;19913;-72
2023/03/28 09:21:34;;;;;;;;;;;19.10;53.30;;;;;;6223433;28;19925;-72
2023/03/28 09:24:47;;;;;;;;;;;19.10;53.30;;;;;;6227378;28;19916;-72
2023/03/28 09:27:56;;;;;;;;;;;19.10;53.40;;;;;;6247221;28;20011;-72
2023/03/28 09:30:58;;;;;;;;;;;19.10;53.30;;;;;;6197340;28;20008;-72
2023/03/28 09:33:59;;;;;;;;;;;19.10;54.10;;;;;;6211609;28;19924;-72
2023/03/28 09:37:14;;;;;;;;;;;19.10;54.10;;;;;;6230203;28;19956;-72
2023/03/28 09:40:17;;;;;;;;;;;19.10;53.40;;;;;;6220938;28;19933;-72
2023/03/28 09:43:21;;;;;;;;;;;19.10;53.50;;;;;;6210384;28;19909;-72
2023/03/28 09:46:30;;;;;;;;;;;19.10;53.40;;;;;;6212097;28;19963;-71
2023/03/28 09:49:30;;;;;;;;;;;19.10;53.50;;;;;;6215723;28;19964;-73
2023/03/28 09:52:31;;;;;;;;;;;19.10;53.50;;;;;;6225577;28;19905;-72
2023/03/28 09:55:33;;;;;;;;;;;19.10;53.50;;;;;;6229712;28;19923;-73
2023/03/28 09:58:48;;;;;;;;;;;19.10;53.50;;;;;;6243664;28;19905;-72
2023/03/28 10:01:50;;;;;;;;;;;19.10;53.50;;;;;;6214781;28;19920;-72
2023/03/28 10:04:51;;;;;;;;;;;19.10;53.60;;;;;;6207287;28;19909;-72
2023/03/28 10:07:56;;;;;;;;;;;19.10;53.50;;;;;;6212170;28;20279;-72
2023/03/28 10:11:00;;;;;;;;;;;19.10;53.60;;;;;;6218382;28;19906;-72
2023/03/28 10:14:04;;;;;;;;;;;19.10;53.50;;;;;;6207124;28;19967;-73
2023/03/28 10:17:16;;;;;;;;;;;19.10;53.60;;;;;;6202844;28;19964;-73
2023/03/28 10:20:20;;;;;;;;;;;19.10;53.60;;;;;;6217629;28;20012;-72
2023/03/28 10:23:22;;;;;;;;;;;19.10;53.50;;;;;;6202145;28;19905;-72
2023/03/28 10:26:23;;;;;;;;;;;19.10;53.50;;;;;;6205165;28;19952;-72
2023/03/28 10:29:25;;;;;;;;;;;19.10;53.50;;;;;;6208982;28;20066;-72
2023/03/28 10:32:30;;;;;;;;;;;19.10;53.50;;;;;;6217236;28;19912;-71
2023/03/28 10:35:32;;;;;;;;;;;19.10;53.50;;;;;;6205938;28;19909;-72
2023/03/28 10:38:36;;;;;;;;;;;19.10;53.50;;;;;;6183869;28;20311;-72
2023/03/28 10:41:50;;;;;;;;;;;19.10;53.40;;;;;;6215985;28;19964;-72
2023/03/28 10:44:58;;;;;;;;;;;19.10;53.40;;;;;;6193299;28;19909;-72
2023/03/28 10:48:00;;;;;;;;;;;19.10;53.40;;;;;;6221613;28;20381;-71
2023/03/28 10:51:07;;;;;;;;;;;19.10;53.50;;;;;;6204914;28;19992;-72
2023/03/28 10:54:07;;;;;;;;;;;19.10;53.50;;;;;;6237294;28;19918;-71
2023/03/28 10:57:08;;;;;;;;;;;19.10;53.50;;;;;;6162820;28;19909;-73
2023/03/28 11:00:24;;;;;;;;;;;19.10;53.60;;;;;;6224016;28;19913;-72
2023/03/28 11:03:27;;;;;;;;;;;19.20;53.70;;;;;;6235387;28;19905;-72
2023/03/28 11:06:36;;;;;;;;;;;19.20;53.40;;;;;;6187099;28;19909;-71
2023/03/28 11:09:51;;;;;;;;;;;19.20;53.20;;;;;;6222446;28;19982;-72
2023/03/28 11:13:05;;;;;;;;;;;19.30;52.80;;;;;;6216367;28;19996;-72
2023/03/28 11:16:11;;;;;;;;;;;19.20;53.10;;;;;;6210971;28;19913;-72
2023/03/28 11:19:18;;;;;;;;;;;19.20;53.10;;;;;;6223188;28;19906;-72
2023/03/28 11:22:29;;;;;;;;;;;19.20;53.40;;;;;;6213041;28;19918;-72
2023/03/28 11:25:39;;;;;;;;;;;19.20;53.50;;;;;;6209933;28;19959;-72
2023/03/28 11:28:53;;;;;;;;;;;19.20;53.60;;;;;;6205618;28;19909;-72
2023/03/28 11:31:54;;;;;;;;;;;19.20;53.60;;;;;;6208952;28;19905;-72
2023/03/28 11:34:57;;;;;;;;;;;19.20;53.70;;;;;;6206912;28;19905;-72
2023/03/28 11:49:07;;;;;;;;;;;19.20;53.80;;;;;;6213219;27;3582568;-71
2023/03/28 12:08:22;;;;;;;;;;;19.20;53.90;;;;;;6309138;28;20410;-71
2023/03/28 12:23:40;;;;;;;;;;;19.10;53.80;;;;;;6281873;28;20061;-72
2023/03/28 12:31:05;;;;;;;;;;;19.10;53.90;;;;;;6288042;28;19958;-71
2023/03/28 12:45:48;;;;;;;;;;;19.10;53.90;;;;;;6288664;28;20294;-73
2023/03/28 12:48:56;;;;;;;;;;;19.10;53.90;;;;;;6266328;28;19921;-72
2023/03/28 12:52:04;;;;;;;;;;;19.10;53.90;;;;;;6263328;28;20140;-72
2023/03/28 12:59:04;;;;;;;;;;;19.20;54.00;;;;;;6279098;28;20017;-72
2023/03/28 13:02:24;;;;;;;;;;;19.10;53.90;;;;;;6263396;28;19913;-72
2023/03/28 13:20:33;;;;;;;;;;;19.10;53.90;;;;;;6252971;28;19909;-71
2023/03/28 13:23:35;;;;;;;;;;;19.10;53.90;;;;;;6253832;28;19909;-71
2023/03/28 13:26:54;;;;;;;;;;;19.10;54.00;;;;;;6272397;28;20100;-70
2023/03/28 13:30:02;;;;;;;;;;;19.10;53.90;;;;;;6272992;28;19940;-71
2023/03/28 13:33:12;;;;;;;;;;;19.10;53.90;;;;;;6267038;28;19932;-70
2023/03/28 13:36:18;;;;;;;;;;;19.10;53.90;;;;;;6272337;28;19913;-70
2023/03/28 13:39:25;;;;;;;;;;;19.10;53.90;;;;;;6230578;28;20040;-70
2023/03/28 13:42:30;;;;;;;;;;;19.10;54.00;;;;;;6236156;28;20402;-69
2023/03/28 13:45:31;;;;;;;;;;;19.10;54.00;;;;;;6247205;28;19909;-69
2023/03/28 13:48:33;;;;;;;;;;;19.10;54.10;;;;;;6263188;28;19927;-70
2023/03/28 13:51:39;;;;;;;;;;;19.10;53.90;;;;;;6254203;28;19908;-69
2023/03/28 13:54:39;;;;;;;;;;;19.10;54.00;;;;;;6247290;28;20376;-69
2023/03/28 13:57:40;;;;;;;;;;;19.10;53.90;;;;;;6254587;28;19921;-69
2023/03/28 14:00:41;;;;;;;;;;;19.20;54.00;;;;;;6284061;28;19908;-69
2023/03/28 14:03:44;;;;;;;;;;;19.10;54.00;;;;;;6282380;28;19908;-73
2023/03/28 14:06:45;;;;;;;;;;;19.10;54.00;;;;;;6295910;28;20453;-69
2023/03/28 14:09:46;;;;;;;;;;;19.10;54.00;;;;;;6290816;28;19913;-70
2023/03/28 14:12:49;;;;;;;;;;;19.10;53.20;;;;;;6263794;28;19999;-70
2023/03/28 14:15:50;;;;;;;;;;;19.10;52.70;;;;;;6252934;28;19920;-69
2023/03/28 14:18:51;;;;;;;;;;;19.10;48.90;;;;;;6265618;28;19909;-70
2023/03/28 14:21:52;;;;;;;;;;;19.10;47.60;;;;;;6246704;28;19949;-70
2023/03/28 14:24:56;;;;;;;;;;;19.10;46.80;;;;;;6260273;28;19909;-69
2023/03/28 14:28:05;;;;;;;;;;;19.10;46.20;;;;;;6228989;28;20390;-69
2023/03/28 14:31:10;;;;;;;;;;;19.10;46.90;;;;;;6271913;28;19915;-69
2023/03/28 14:34:20;;;;;;;;;;;19.10;46.90;;;;;;6268166;28;19939;-70
2023/03/28 14:37:21;;;;;;;;;;;19.10;47.40;;;;;;6246055;28;19920;-69
2023/03/28 14:40:22;;;;;;;;;;;19.10;48.50;;;;;;6274852;28;19970;-68
2023/03/28 14:43:27;;;;;;;;;;;19.10;49.40;;;;;;6279922;28;20349;-69
2023/03/28 14:46:30;;;;;;;;;;;19.10;49.80;;;;;;6277069;28;19924;-69
2023/03/28 14:49:31;;;;;;;;;;;19.10;50.30;;;;;;6296066;28;20362;-69
2023/03/28 14:52:39;;;;;;;;;;;19.10;50.60;;;;;;6273891;28;20371;-69
2023/03/28 14:55:41;;;;;;;;;;;19.10;50.80;;;;;;6277096;28;20444;-69
2023/03/28 14:58:44;;;;;;;;;;;19.10;51.20;;;;;;6296180;28;19913;-69
2023/03/28 15:01:48;;;;;;;;;;;19.10;51.40;;;;;;6277865;28;19939;-69
2023/03/28 15:04:50;;;;;;;;;;;19.10;51.60;;;;;;6277776;28;19912;-69
2023/03/28 15:07:59;;;;;;;;;;;19.10;51.60;;;;;;6295690;28;19947;-69
2023/03/28 15:11:03;;;;;;;;;;;19.10;51.80;;;;;;6228063;28;20386;-70
2023/03/28 15:14:03;;;;;;;;;;;19.10;51.90;;;;;;6246032;28;19909;-69
2023/03/28 15:17:04;;;;;;;;;;;19.10;52.00;;;;;;6245594;28;19921;-69
2023/03/28 15:20:06;;;;;;;;;;;19.10;52.00;;;;;;6227541;28;19915;-69
2023/03/28 15:23:12;;;;;;;;;;;19.10;52.10;;;;;;6227999;28;20307;-70
2023/03/28 15:26:33;;;;;;;;;;;19.10;52.10;;;;;;6244548;28;19909;-69
2023/03/28 15:29:35;;;;;;;;;;;19.10;52.20;;;;;;6237596;28;20010;-69
2023/03/28 15:32:35;;;;;;;;;;;19.10;52.20;;;;;;6268914;28;19908;-71
2023/03/28 15:35:38;;;;;;;;;;;19.10;52.30;;;;;;6277151;28;19967;-70
2023/03/28 15:38:39;;;;;;;;;;;19.10;52.40;;;;;;6293578;28;19973;-69
2023/03/28 15:41:45;;;;;;;;;;;19.10;52.40;;;;;;6270407;28;20043;-69
2023/03/28 15:44:50;;;;;;;;;;;19.10;52.40;;;;;;6261944;28;19960;-69
2023/03/28 15:47:54;;;;;;;;;;;19.10;52.50;;;;;;6276801;28;19928;-69
2023/03/28 15:50:55;;;;;;;;;;;19.10;52.60;;;;;;6276089;28;19913;-69
2023/03/28 15:53:57;;;;;;;;;;;19.10;52.60;;;;;;6270263;28;19919;-69
2023/03/28 15:56:59;;;;;;;;;;;19.10;52.60;;;;;;6270072;28;19920;-69
2023/03/28 16:00:00;;;;;;;;;;;19.10;52.60;;;;;;6259177;28;19916;-73
2023/03/28 16:03:18;;;;;;;;;;;19.10;52.70;;;;;;6276161;28;20347;-73
2023/03/28 16:06:21;;;;;;;;;;;19.10;52.80;;;;;;6235379;28;19920;-71
2023/03/28 16:09:22;;;;;;;;;;;19.10;52.30;;;;;;6270119;28;19909;-70
2023/03/28 16:12:24;;;;;;;;;;;19.10;50.10;;;;;;6270158;28;19958;-68
2023/03/28 16:15:25;;;;;;;;;;;19.10;48.10;;;;;;6257496;28;19909;-68
2023/03/28 16:18:26;;;;;;;;;;;19.10;47.50;;;;;;6260104;28;19916;-68
2023/03/28 16:21:27;;;;;;;;;;;19.10;47.30;;;;;;6272485;28;19920;-70
2023/03/28 16:24:28;;;;;;;;;;;19.10;48.60;;;;;;6272187;28;19917;-68
2023/03/28 16:27:29;;;;;;;;;;;19.10;49.80;;;;;;6272169;28;19932;-69
2023/03/28 16:30:33;;;;;;;;;;;19.10;50.10;;;;;;6254867;28;19944;-68
2023/03/28 16:33:34;;;;;;;;;;;19.10;50.30;;;;;;6272779;28;19940;-68
2023/03/28 16:36:35;;;;;;;;;;;19.10;50.80;;;;;;6268694;28;20267;-68
2023/03/28 16:39:36;;;;;;;;;;;19.10;51.10;;;;;;6271908;28;20725;-68
2023/03/28 16:42:36;;;;;;;;;;;19.10;51.20;;;;;;6272639;28;20006;-69
2023/03/28 16:45:37;;;;;;;;;;;19.10;51.30;;;;;;6271854;28;19908;-68
2023/03/28 16:48:39;;;;;;;;;;;19.10;51.40;;;;;;6272330;28;19920;-68
2023/03/28 16:51:39;;;;;;;;;;;19.10;51.50;;;;;;6272210;28;19909;-68
2023/03/28 16:54:40;;;;;;;;;;;19.10;51.60;;;;;;6272271;28;19962;-68
2023/03/28 16:57:41;;;;;;;;;;;19.10;51.70;;;;;;6272016;28;19917;-68
2023/03/28 17:00:41;;;;;;;;;;;19.10;51.70;;;;;;6253752;28;19916;-69
2023/03/28 17:03:42;;;;;;;;;;;19.10;51.80;;;;;;6248383;28;19928;-68
2023/03/28 17:06:42;;;;;;;;;;;19.10;51.90;;;;;;6278017;28;19957;-68
2023/03/28 17:09:43;;;;;;;;;;;19.10;51.90;;;;;;6277152;28;19908;-69
2023/03/28 17:12:44;;;;;;;;;;;19.10;52.00;;;;;;6257059;28;19915;-69
2023/03/28 17:15:44;;;;;;;;;;;19.10;52.00;;;;;;6267334;28;19967;-69
2023/03/28 17:18:45;;;;;;;;;;;19.10;52.10;;;;;;6270309;28;20101;-69
2023/03/28 17:21:47;;;;;;;;;;;19.10;52.10;;;;;;6272708;28;20424;-69
2023/03/28 17:24:47;;;;;;;;;;;19.10;52.10;;;;;;6285007;28;19961;-68
2023/03/28 17:27:48;;;;;;;;;;;19.10;52.10;;;;;;6271394;28;19909;-69
2023/03/28 17:30:49;;;;;;;;;;;19.10;52.20;;;;;;6270749;28;19916;-68
2023/03/28 17:33:49;;;;;;;;;;;19.10;52.20;;;;;;6270581;28;19999;-68
2023/03/28 17:36:52;;;;;;;;;;;19.10;52.30;;;;;;6246029;28;19913;-68
2023/03/28 17:39:52;;;;;;;;;;;19.10;52.30;;;;;;6226191;28;20567;-68
2023/03/28 17:42:53;;;;;;;;;;;19.10;52.40;;;;;;6268398;28;19909;-68
2023/03/28 17:45:54;;;;;;;;;;;19.10;52.40;;;;;;6252811;28;19917;-69
2023/03/28 17:48:54;;;;;;;;;;;19.10;52.40;;;;;;6253453;28;19995;-69
2023/03/28 17:51:56;;;;;;;;;;;19.10;52.40;;;;;;6253007;28;19909;-69
2023/03/28 17:54:57;;;;;;;;;;;19.10;52.50;;;;;;6268282;28;19959;-69
2023/03/28 17:57:58;;;;;;;;;;;19.10;52.50;;;;;;6282035;28;19916;-69
2023/03/28 18:00:59;;;;;;;;;;;19.10;52.50;;;;;;6270602;28;19959;-69
2023/03/28 18:03:59;;;;;;;;;;;19.10;53.20;;;;;;6251033;28;19915;-69
2023/03/28 18:07:00;;;;;;;;;;;19.10;52.60;;;;;;6282832;28;19935;-69
2023/03/28 18:10:01;;;;;;;;;;;19.10;52.60;;;;;;6295366;28;19908;-68
2023/03/28 18:13:02;;;;;;;;;;;19.10;52.60;;;;;;6294643;28;19916;-68
2023/03/28 18:16:04;;;;;;;;;;;19.10;52.60;;;;;;6286193;28;20298;-69
2023/03/28 18:19:05;;;;;;;;;;;19.10;52.60;;;;;;6252658;28;20310;-69
2023/03/28 18:22:06;;;;;;;;;;;19.10;52.60;;;;;;6270504;28;20283;-68
2023/03/28 18:25:07;;;;;;;;;;;19.10;52.70;;;;;;6270592;28;19913;-68
2023/03/28 18:28:08;;;;;;;;;;;19.10;52.60;;;;;;6271071;28;19916;-67
2023/03/28 18:31:10;;;;;;;;;;;19.10;52.70;;;;;;6270618;28;20542;-68
2023/03/28 18:34:11;;;;;;;;;;;19.10;52.70;;;;;;6270951;28;20491;-68
2023/03/28 18:37:11;;;;;;;;;;;19.10;52.70;;;;;;6270736;28;19919;-68
2023/03/28 18:40:13;;;;;;;;;;;19.10;52.70;;;;;;6252821;28;20554;-67
2023/03/28 18:43:13;;;;;;;;;;;19.10;52.70;;;;;;6252230;28;20034;-68
2023/03/28 18:46:14;;;;;;;;;;;19.10;52.70;;;;;;6269580;28;20292;-67
2023/03/28 18:49:15;;;;;;;;;;;19.10;52.80;;;;;;6270523;28;19917;-67
2023/03/28 18:52:16;;;;;;;;;;;19.10;52.70;;;;;;6270227;28;20020;-67
2023/03/28 18:55:17;;;;;;;;;;;19.10;52.70;;;;;;6270007;28;19913;-67
2023/03/28 18:58:18;;;;;;;;;;;19.10;52.70;;;;;;6270238;28;20467;-67
2023/03/28 19:01:19;;;;;;;;;;;19.10;52.70;;;;;;6270093;28;19913;-70